Time;durP1;ratioP1;P1;durP2;ratioP2;P2;SDS_P1;SDS_P2;PMS_P1;PMS_P2;Temp;Humidity;BMP_temperature;BMP_pressure;BME280_temperature;BME280_humidity;BME280_pressure;Samples;Min_cycle;Max_cycle;Signal;HPM_P1;HPM_P2
2023/10/02 00:01:45;;;;;;;;;10.00;8.00;;;;;26.50;45.48;101857.53;5054639;28;45305;-77
2023/10/02 00:04:19;;;;;;;;;6.00;5.00;;;;;26.60;45.34;101870.56;5004851;28;1414592;-78
2023/10/02 00:06:50;;;;;;;;;7.00;7.00;;;;;26.66;45.53;101879.66;5056310;28;45250;-78
2023/10/02 00:09:20;;;;;;;;;4.67;4.67;;;;;26.62;45.84;101874.69;5056270;28;45295;-77
2023/10/02 00:11:46;;;;;;;;;9.00;6.67;;;;;26.44;45.88;101848.41;5056218;28;45355;-77
2023/10/02 00:14:19;;;;;;;;;12.00;6.00;;;;;26.53;45.86;101857.16;5055895;28;46159;-77
2023/10/02 00:17:13;;;;;;;;;7.67;6.00;;;;;26.67;45.29;101879.50;5055942;28;45430;-77
2023/10/02 00:19:46;;;;;;;;;8.00;6.67;;;;;26.44;45.89;101851.09;5056100;28;45314;-77
2023/10/02 00:22:42;;;;;;;;;10.00;6.67;;;;;26.25;45.41;101812.44;5055845;28;45506;-78
2023/10/02 00:25:16;;;;;;;;;8.67;6.00;;;;;26.65;45.89;101880.72;5055823;28;46176;-78
2023/10/02 00:27:46;;;;;;;;;8.00;5.67;;;;;26.54;45.27;101853.47;5055791;28;45359;-78
2023/10/02 00:30:13;;;;;;;;;10.67;6.67;;;;;26.37;45.66;101832.31;5055698;28;45355;-76
2023/10/02 00:32:41;;;;;;;;;8.67;7.33;;;;;26.68;45.29;101882.97;5055934;28;45458;-77
2023/10/02 00:35:11;;;;;;;;;7.67;4.67;;;;;26.67;45.60;101884.84;5055775;28;46579;-77
2023/10/02 00:37:43;;;;;;;;;8.33;8.00;;;;;26.63;45.72;101876.38;5055837;28;45664;-76
2023/10/02 00:40:30;;;;;;;;;8.67;7.00;;;;;25.92;45.77;101760.31;5055906;28;45414;-76
2023/10/02 00:43:33;;;;;;;;;7.00;5.33;;;;;26.23;45.54;101817.16;5055708;28;45249;-77
2023/10/02 00:45:49;;;;;;;;;7.67;6.00;;;;;26.68;45.77;101886.47;5055117;28;45370;-76
2023/10/02 00:48:33;;;;;;;;;8.00;7.00;;;;;26.18;45.43;101799.00;5055611;28;45378;-77
2023/10/02 00:51:06;;;;;;;;;12.00;6.00;;;;;26.55;45.94;101860.47;5055387;28;45348;-78
2023/10/02 00:53:46;;;;;;;;;8.00;6.33;;;;;26.34;45.50;101835.34;5054835;28;45478;-78
2023/10/02 00:56:24;;;;;;;;;7.00;6.00;;;;;26.34;45.14;101827.34;5055439;28;46945;-77
2023/10/02 00:59:00;;;;;;;;;8.00;3.33;;;;;26.55;46.10;101865.78;5055033;28;45403;-77
2023/10/02 01:01:31;;;;;;;;;8.00;7.00;;;;;26.51;45.13;101852.00;5055779;28;45496;-75
2023/10/02 01:04:24;;;;;;;;;6.67;5.00;;;;;26.44;45.43;101839.59;5055496;28;45491;-77
2023/10/02 01:07:04;;;;;;;;;8.33;7.33;;;;;26.67;45.27;101870.66;5055340;28;47003;-78
2023/10/02 01:09:34;;;;;;;;;5.33;5.00;;;;;26.38;45.78;101839.31;5055323;28;45493;-77
2023/10/02 01:11:59;;;;;;;;;7.67;6.00;;;;;26.19;45.31;101800.69;5055555;28;45366;-77
2023/10/02 01:17:11;;;;;;;;;5.00;5.00;;;;;26.67;45.14;101868.81;5055293;28;45791;-77
2023/10/02 01:19:52;;;;;;;;;5.00;5.00;;;;;26.68;45.85;101869.63;5055422;28;45571;-76
2023/10/02 01:22:27;;;;;;;;;7.00;5.00;;;;;26.68;45.79;101870.47;5055189;28;45231;-77
2023/10/02 01:25:06;;;;;;;;;7.33;5.67;;;;;26.68;45.15;101858.94;5055301;28;45356;-78
2023/10/02 01:27:40;;;;;;;;;8.00;6.33;;;;;26.68;45.72;101866.97;5054929;28;47288;-78
2023/10/02 01:30:16;;;;;;;;;5.67;5.67;;;;;26.52;45.81;101848.31;5055304;28;45369;-78
2023/10/02 01:33:06;;;;;;;;;6.00;6.00;;;;;26.48;45.83;101830.19;5055265;28;45577;-78
2023/10/02 01:35:56;;;;;;;;;6.33;6.33;;;;;26.64;45.65;101863.84;5053909;28;45603;-77
2023/10/02 01:38:27;;;;;;;;;8.00;5.33;;;;;26.68;45.18;101857.13;5054805;28;47143;-76
2023/10/02 01:41:11;;;;;;;;;9.00;5.67;;;;;26.51;45.29;101830.66;5055028;28;45335;-77
2023/10/02 01:43:39;;;;;;;;;7.00;5.67;;;;;26.41;45.97;101816.75;5054512;28;45467;-77
2023/10/02 01:46:06;;;;;;;;;7.67;6.00;;;;;26.39;45.73;101816.09;5055189;28;45380;-78
2023/10/02 01:48:37;;;;;;;;;4.67;4.67;;;;;26.59;45.31;101836.91;5054785;28;45422;-77
2023/10/02 01:51:25;;;;;;;;;11.33;6.00;;;;;26.68;45.43;101854.44;5053549;28;46071;-78
2023/10/02 01:53:54;;;;;;;;;8.00;6.00;;;;;26.68;45.74;101842.94;5054928;28;45399;-78
2023/10/02 01:56:21;;;;;;;;;7.33;5.00;;;;;25.88;45.47;101719.06;5054978;28;45334;-77
2023/10/02 01:58:48;;;;;;;;;8.00;4.00;;;;;26.38;45.73;101796.63;5054230;28;47096;-78
2023/10/02 02:01:14;;;;;;;;;5.67;5.00;;;;;26.57;45.65;101829.06;5054825;28;45287;-77
2023/10/02 02:03:51;;;;;;;;;7.33;5.00;;;;;26.61;45.38;101830.38;5056089;28;45301;-78
2023/10/02 02:06:20;;;;;;;;;9.00;6.67;;;;;26.46;45.07;101805.56;5058031;28;45366;-78
2023/10/02 02:08:58;;;;;;;;;5.67;5.00;;;;;26.67;45.28;101831.47;5058029;28;46210;-78
2023/10/02 02:11:29;;;;;;;;;6.33;6.33;;;;;26.60;45.28;101826.03;5057598;28;45203;-77
2023/10/02 02:13:58;;;;;;;;;7.67;5.00;;;;;26.61;45.98;101818.84;5058199;28;45392;-77
2023/10/02 02:16:33;;;;;;;;;5.00;5.00;;;;;26.66;46.04;101836.97;5056714;28;45258;-77
2023/10/02 02:19:05;;;;;;;;;7.33;5.67;;;;;26.47;45.76;101801.84;5057710;28;46574;-77
2023/10/02 02:21:31;;;;;;;;;6.00;5.00;;;;;26.68;45.81;101837.59;5057759;28;45279;-77
2023/10/02 02:24:03;;;;;;;;;7.00;5.00;;;;;26.56;45.56;101807.91;5057942;28;45314;-78
2023/10/02 02:26:31;;;;;;;;;7.67;5.00;;;;;26.67;45.72;101830.63;5057555;28;45456;-77
2023/10/02 02:28:57;;;;;;;;;5.33;5.33;;;;;26.56;45.64;101814.09;5057526;28;46423;-78
2023/10/02 02:31:32;;;;;;;;;4.67;4.67;;;;;26.62;45.58;101823.19;5057804;28;45447;-77
2023/10/02 02:34:14;;;;;;;;;7.00;6.00;;;;;26.67;45.42;101818.13;5057819;28;45357;-77
2023/10/02 02:36:42;;;;;;;;;6.33;5.00;;;;;26.67;45.66;101823.44;5057740;28;45628;-77
2023/10/02 02:39:15;;;;;;;;;6.00;5.67;;;;;26.67;45.26;101818.13;5057422;28;47316;-76
2023/10/02 02:41:45;;;;;;;;;5.33;5.33;;;;;26.68;45.15;101821.59;5056977;28;45300;-78
2023/10/02 02:44:39;;;;;;;;;5.33;5.33;;;;;25.62;45.52;101650.03;5057603;28;45308;-78
2023/10/02 02:47:07;;;;;;;;;6.67;5.33;;;;;26.67;45.77;101822.63;5057454;28;45325;-78
2023/10/02 02:49:58;;;;;;;;;3.67;3.00;;;;;26.61;45.71;101803.69;5057463;28;46354;-78
2023/10/02 02:52:24;;;;;;;;;6.33;6.33;;;;;26.66;45.17;101805.78;5057505;28;45213;-77
2023/10/02 02:55:05;;;;;;;;;7.00;5.33;;;;;26.68;45.29;101802.91;5057179;28;45367;-76
2023/10/02 02:57:32;;;;;;;;;6.67;5.33;;;;;26.67;45.05;101802.09;5057401;28;45449;-77
2023/10/02 03:02:52;;;;;;;;;9.33;6.00;;;;;26.56;45.24;101786.56;5057274;28;45422;-77
2023/10/02 03:05:21;;;;;;;;;4.67;4.00;;;;;26.26;45.63;101731.41;5057333;28;45296;-76
2023/10/02 03:07:49;;;;;;;;;5.00;4.33;;;;;26.48;45.11;101764.31;5057157;28;45578;-78
2023/10/02 03:10:16;;;;;;;;;4.33;3.67;;;;;26.53;45.17;101758.41;5056583;28;45522;-77
2023/10/02 03:12:48;;;;;;;;;5.00;3.00;;;;;26.48;45.56;101761.66;5057275;28;45315;-77
2023/10/02 03:15:48;;;;;;;;;6.00;6.00;;;;;26.26;45.47;101728.72;5056138;28;45432;-77
2023/10/02 03:18:30;;;;;;;;;8.33;5.67;;;;;26.39;45.75;101736.06;5057222;28;45268;-78
2023/10/02 03:20:58;;;;;;;;;5.67;5.67;;;;;26.59;45.74;101775.53;5056744;28;47095;-77
2023/10/02 03:23:27;;;;;;;;;5.00;5.00;;;;;26.64;45.53;101783.78;5056821;28;45390;-78
2023/10/02 03:25:56;;;;;;;;;6.00;6.00;;;;;26.59;45.53;101773.69;5056918;28;45367;-79
2023/10/02 03:28:27;;;;;;;;;9.33;5.00;;;;;26.65;45.46;101784.63;5056803;28;45262;-77
2023/10/02 03:30:57;;;;;;;;;6.00;4.00;;;;;26.37;45.23;101741.59;5055450;28;46143;-77
2023/10/02 03:33:25;;;;;;;;;5.67;5.67;;;;;26.59;45.78;101768.34;5056858;28;45536;-77
2023/10/02 03:36:07;;;;;;;;;7.00;6.00;;;;;26.40;45.08;101743.88;5056770;28;45255;-78
2023/10/02 03:38:33;;;;;;;;;6.67;5.00;;;;;26.66;45.41;101778.25;5056325;28;45325;-77
2023/10/02 03:41:01;;;;;;;;;8.00;6.00;;;;;26.65;44.92;101780.09;5056459;28;45452;-77
2023/10/02 03:43:43;;;;;;;;;5.00;5.00;;;;;26.58;45.65;101758.69;5056423;28;45463;-78
2023/10/02 03:46:35;;;;;;;;;4.67;4.67;;;;;26.66;45.14;101775.56;5056653;28;45238;-78
2023/10/02 03:48:58;;;;;;;;;7.33;6.00;;;;;26.61;44.98;101770.81;5056684;28;45572;-78
2023/10/02 03:51:36;;;;;;;;;11.67;7.00;;;;;26.35;45.26;101722.28;5056538;28;45640;-78
2023/10/02 03:54:17;;;;;;;;;5.00;4.67;;;;;26.67;45.22;101771.91;5056125;28;45487;-78
2023/10/02 03:56:54;;;;;;;;;6.00;5.00;;;;;26.47;45.63;101748.47;5056585;28;45438;-78
2023/10/02 03:59:22;;;;;;;;;6.67;5.00;;;;;26.38;44.93;101724.59;5056383;28;45309;-77
2023/10/02 04:01:50;;;;;;;;;6.00;5.00;;;;;26.64;45.15;101773.13;5056306;28;46020;-77
2023/10/02 04:04:21;;;;;;;;;8.33;6.00;;;;;26.66;45.05;101771.06;5055900;28;45315;-77
2023/10/02 04:06:50;;;;;;;;;5.00;5.00;;;;;26.58;45.57;101760.50;5056264;28;45402;-77
2023/10/02 04:09:23;;;;;;;;;6.33;5.00;;;;;26.41;45.06;101737.53;5055942;28;45430;-77
2023/10/02 04:11:53;;;;;;;;;5.00;5.00;;;;;26.55;45.49;101768.88;5056018;28;45403;-78
2023/10/02 04:14:32;;;;;;;;;7.00;7.00;;;;;26.43;45.00;101739.19;5071815;28;45373;-77
2023/10/02 04:19:35;;;;;;;;;5.33;4.33;;;;;26.61;45.39;101766.31;5056293;28;45261;-77
2023/10/02 04:22:06;;;;;;;;;5.67;4.33;;;;;26.59;45.50;101773.69;5055666;28;47226;-77
2023/10/02 04:24:54;;;;;;;;;7.00;5.00;;;;;26.62;45.44;101770.63;5056144;28;45384;-77
2023/10/02 04:33:07;;;;;;;;;7.67;6.00;;;;;26.13;45.26;101695.56;5055865;28;45343;-77
2023/10/02 04:35:45;;;;;;;;;6.00;5.00;;;;;26.48;45.21;101748.31;5055850;28;45182;-77
2023/10/02 04:38:47;;;;;;;;;4.00;4.00;;;;;26.06;44.96;101682.16;5055506;28;45312;-76
2023/10/02 04:41:03;;;;;;;;;6.67;6.00;;;;;26.63;45.40;101763.44;5055473;28;45449;-77
2023/10/02 04:43:29;;;;;;;;;4.33;4.00;;;;;26.55;45.70;101747.53;5055381;28;46155;-77
2023/10/02 04:46:17;;;;;;;;;5.00;5.00;;;;;26.46;45.58;101730.84;5055640;28;45244;-78
2023/10/02 04:48:47;;;;;;;;;6.00;4.00;;;;;26.08;45.08;101671.31;5055627;28;45454;-77
2023/10/02 04:51:15;;;;;;;;;8.33;5.00;;;;;26.56;45.21;101746.53;5054056;28;45573;-77
2023/10/02 04:53:45;;;;;;;;;6.67;4.33;;;;;26.65;44.93;101758.72;5055463;28;46156;-77
2023/10/02 04:58:49;;;;;;;;;4.00;3.00;;;;;26.23;45.43;101711.25;5055646;28;45395;-77
2023/10/02 05:01:29;;;;;;;;;4.67;4.00;;;;;26.54;45.30;101756.56;5055776;28;45470;-77
2023/10/02 05:03:58;;;;;;;;;7.00;4.33;;;;;26.36;45.45;101715.91;5055153;28;45932;-78
2023/10/02 05:06:44;;;;;;;;;7.67;4.67;;;;;26.39;44.93;101720.88;5054994;28;45384;-77
2023/10/02 05:11:55;;;;;;;;;6.00;5.00;;;;;26.65;45.30;101766.75;5055391;28;45336;-77
2023/10/02 05:14:47;;;;;;;;;5.67;4.00;;;;;26.40;45.17;101721.72;5055200;28;46144;-77
2023/10/02 05:17:17;;;;;;;;;9.00;5.00;;;;;26.46;45.57;101744.19;5055146;28;45375;-77
2023/10/02 05:20:13;;;;;;;;;8.00;5.00;;;;;26.54;45.43;101749.41;5055019;28;45391;-76
2023/10/02 05:22:38;;;;;;;;;4.67;4.00;;;;;26.62;45.41;101767.94;5055143;28;45450;-76
2023/10/02 05:25:05;;;;;;;;;7.33;4.33;;;;;26.59;44.90;101754.16;5054989;28;46581;-77
2023/10/02 05:27:33;;;;;;;;;6.67;5.00;;;;;26.63;44.96;101766.09;5055116;28;45427;-74
2023/10/02 05:30:12;;;;;;;;;5.67;3.00;;;;;26.61;45.54;101752.97;5053555;28;45403;-75
2023/10/02 05:32:41;;;;;;;;;4.67;4.67;;;;;26.57;45.11;101750.88;5054200;28;45597;-76
2023/10/02 05:37:42;;;;;;;;;4.00;4.00;;;;;26.56;45.37;101743.88;5054854;28;45539;-75
2023/10/02 05:48:14;;;;;;;;;5.33;5.33;;;;;26.00;44.89;101661.56;5058346;28;45414;-79
2023/10/02 05:50:47;;;;;;;;;9.67;5.00;;;;;26.10;44.82;101695.94;5058409;28;45235;-79
2023/10/02 05:53:13;;;;;;;;;6.33;4.00;;;;;26.25;44.95;101706.59;5058356;28;45351;-78
2023/10/02 05:55:57;;;;;;;;;5.00;4.00;;;;;26.27;44.73;101707.22;5057177;28;46186;-73
2023/10/02 05:58:31;;;;;;;;;7.33;6.33;;;;;26.63;44.89;101761.59;5057854;28;45438;-75
2023/10/02 06:01:23;;;;;;;;;8.33;5.00;;;;;26.65;45.41;101758.72;5056721;28;45439;-77
2023/10/02 06:03:56;;;;;;;;;5.00;4.00;;;;;26.52;45.03;101744.25;5047327;28;45554;-75
2023/10/02 06:06:23;;;;;;;;;7.67;4.67;;;;;26.66;45.10;101768.41;5057467;28;47107;-78
2023/10/02 06:08:51;;;;;;;;;6.33;6.00;;;;;26.61;44.59;101752.13;5057763;28;45439;-78
2023/10/02 06:11:26;;;;;;;;;8.00;5.00;;;;;26.55;45.05;101740.38;5058305;28;45312;-78
2023/10/02 06:14:11;;;;;;;;;7.00;7.00;;;;;26.49;44.36;101730.47;5056801;28;45309;-75
2023/10/02 06:16:40;;;;;;;;;5.33;5.33;;;;;26.72;44.58;101758.81;5057744;28;45453;-77
2023/10/02 06:19:13;;;;;;;;;4.67;4.33;;;;;26.25;44.39;101687.09;5057695;28;45379;-77
2023/10/02 06:21:45;;;;;;;;;4.67;4.67;;;;;26.70;44.46;101764.31;5053460;28;45309;-78
2023/10/02 06:24:18;;;;;;;;;9.33;5.00;;;;;26.66;44.88;101749.72;5037827;28;45542;-78
2023/10/02 06:26:52;;;;;;;;;7.67;5.67;;;;;26.72;44.36;101753.47;5037552;28;46193;-77
2023/10/02 06:29:24;;;;;;;;;7.00;5.00;;;;;26.82;44.66;101767.34;5037573;28;45542;-77
2023/10/02 06:32:05;;;;;;;;;5.33;5.33;;;;;26.80;44.49;101761.38;5037908;28;45309;-78
2023/10/02 06:34:38;;;;;;;;;6.67;6.00;;;;;26.78;44.50;101757.25;5037702;28;45480;-79
2023/10/02 06:37:17;;;;;;;;;6.00;6.00;;;;;26.85;43.77;101768.78;5037485;28;46548;-78
2023/10/02 06:40:05;;;;;;;;;7.00;7.00;;;;;26.85;44.42;101768.78;5037459;28;45230;-78
2023/10/02 06:42:31;;;;;;;;;4.67;4.33;;;;;26.88;44.58;101772.94;5045469;28;45419;-78
2023/10/02 06:45:01;;;;;;;;;4.67;4.00;;;;;26.85;44.32;101769.59;5057681;28;45412;-77
2023/10/02 06:47:29;;;;;;;;;7.00;6.00;;;;;26.90;44.55;101781.56;5057140;28;46363;-78
2023/10/02 06:50:02;;;;;;;;;7.00;6.67;;;;;26.91;44.61;101781.38;5057411;28;45415;-78
2023/10/02 06:52:29;;;;;;;;;7.67;5.33;;;;;26.94;44.51;101786.34;5057454;28;45492;-77
2023/10/02 06:54:56;;;;;;;;;5.00;5.00;;;;;26.97;44.29;101782.44;5057462;28;45574;-78
2023/10/02 06:57:24;;;;;;;;;5.67;4.33;;;;;26.94;43.76;101772.16;5057242;28;45566;-78
2023/10/02 06:59:51;;;;;;;;;4.67;4.67;;;;;26.93;44.46;101768.66;5057264;28;45350;-78
2023/10/02 07:02:21;;;;;;;;;6.00;4.67;;;;;27.04;44.21;101782.50;5057162;28;45353;-78
2023/10/02 07:04:48;;;;;;;;;9.00;6.00;;;;;26.99;44.32;101771.56;5057086;28;45372;-77
2023/10/02 07:07:15;;;;;;;;;9.00;5.67;;;;;27.10;44.30;101781.75;5057067;28;46257;-77
2023/10/02 07:09:40;;;;;;;;;4.67;4.00;;;;;26.99;43.95;101758.22;5057214;28;45308;-77
2023/10/02 07:12:09;;;;;;;;;4.33;4.33;;;;;27.13;43.90;101777.91;5057404;28;45375;-78
2023/10/02 07:14:38;;;;;;;;;5.33;5.00;;;;;27.06;44.17;101759.94;5057404;28;45284;-78
2023/10/02 07:17:11;;;;;;;;;7.33;5.67;;;;;27.15;43.93;101771.34;5056605;28;46180;-77
2023/10/02 07:19:44;;;;;;;;;6.00;5.00;;;;;27.15;43.67;101767.84;5057076;28;45413;-77
2023/10/02 07:22:16;;;;;;;;;4.33;4.33;;;;;27.17;43.63;101768.47;5056921;28;45247;-77
2023/10/02 07:24:46;;;;;;;;;5.00;5.00;;;;;27.28;43.99;101783.16;5056877;28;45522;-78
2023/10/02 07:27:24;;;;;;;;;5.67;5.00;;;;;27.31;43.55;101787.28;5056761;28;47703;-78
2023/10/02 07:29:57;;;;;;;;;8.00;7.00;;;;;27.21;43.36;101759.06;5056803;28;45394;-79
2023/10/02 07:32:25;;;;;;;;;4.00;4.00;;;;;27.39;43.66;101789.81;5056808;28;45463;-78
2023/10/02 07:34:53;;;;;;;;;5.67;5.67;;;;;27.45;43.79;101788.22;5056936;28;45434;-77
2023/10/02 07:37:24;;;;;;;;;8.33;5.00;;;;;27.44;43.53;101784.72;5056656;28;46251;-77
2023/10/02 07:39:57;;;;;;;;;8.67;6.33;;;;;27.38;43.12;101761.44;5056687;28;45411;-78
2023/10/02 07:42:31;;;;;;;;;8.33;5.00;;;;;27.40;43.71;101760.22;5056763;28;45410;-78
2023/10/02 07:45:11;;;;;;;;;7.33;5.00;;;;;27.31;42.95;101741.84;5056243;28;45281;-77
2023/10/02 07:47:55;;;;;;;;;6.00;6.00;;;;;27.60;43.34;101775.56;5056404;28;47269;-78
2023/10/02 07:50:33;;;;;;;;;6.00;6.00;;;;;27.69;42.85;101778.09;5056432;28;45390;-77
2023/10/02 07:52:58;;;;;;;;;8.67;5.00;;;;;27.59;43.15;101757.88;5056543;28;45212;-78
2023/10/02 07:55:24;;;;;;;;;3.00;3.00;;;;;27.69;43.32;101760.19;5056650;28;45177;-78
2023/10/02 07:57:58;;;;;;;;;5.33;4.33;;;;;27.96;42.87;101778.25;5056565;28;45664;-78
2023/10/02 08:00:38;;;;;;;;;6.67;5.00;;;;;28.07;42.66;101758.97;5056067;28;45396;-78
2023/10/02 08:03:09;;;;;;;;;6.33;5.67;;;;;28.43;42.25;101774.94;5056442;28;45300;-77
2023/10/02 08:05:35;;;;;;;;;6.00;5.00;;;;;28.65;41.75;101785.50;5056202;28;45473;-77
2023/10/02 08:08:10;;;;;;;;;4.00;4.00;;;;;28.78;41.69;101782.03;5056098;28;46984;-77
2023/10/02 08:10:49;;;;;;;;;7.33;5.00;;;;;28.85;41.18;101749.91;5055083;28;45266;-77
2023/10/02 08:13:16;;;;;;;;;6.33;6.33;;;;;29.10;41.10;101753.84;5056113;28;45415;-77
2023/10/02 08:15:44;;;;;;;;;7.33;4.67;;;;;29.32;40.72;101756.31;5055859;28;45335;-77
2023/10/02 08:18:19;;;;;;;;;4.33;3.67;;;;;29.35;40.82;101750.53;5055957;28;47162;-78
2023/10/02 08:20:45;;;;;;;;;5.00;5.00;;;;;29.47;40.26;101764.94;5055938;28;45397;-78
2023/10/02 08:23:21;;;;;;;;;4.00;4.00;;;;;29.55;40.59;101782.66;5056118;28;45323;-78
2023/10/02 08:26:05;;;;;;;;;5.33;4.00;;;;;29.48;40.49;101776.50;5056211;28;45645;-77
2023/10/02 08:28:34;;;;;;;;;7.00;6.00;;;;;29.24;40.23;101752.81;5055676;28;47044;-78
2023/10/02 08:31:00;;;;;;;;;5.00;5.00;;;;;29.36;40.55;101779.78;5055964;28;45338;-78
2023/10/02 08:33:26;;;;;;;;;7.00;5.00;;;;;29.21;40.54;101765.78;5056122;28;45496;-78
2023/10/02 08:35:52;;;;;;;;;5.00;4.00;;;;;29.23;40.49;101777.94;5056339;28;45428;-78
2023/10/02 08:38:24;;;;;;;;;4.67;4.67;;;;;29.03;40.83;101749.28;5055992;28;45959;-77
2023/10/02 08:40:57;;;;;;;;;5.33;5.33;;;;;29.14;41.06;101771.16;5055800;28;45436;-78
2023/10/02 08:43:32;;;;;;;;;4.33;4.33;;;;;29.06;40.65;101764.13;5055406;28;45439;-77
2023/10/02 08:45:58;;;;;;;;;8.33;6.00;;;;;29.02;41.29;101766.38;5055748;28;45345;-77
2023/10/02 08:48:25;;;;;;;;;6.67;4.33;;;;;28.92;40.96;101758.75;5055656;28;46226;-77
2023/10/02 08:50:57;;;;;;;;;7.33;5.67;;;;;28.91;41.13;101767.00;5055711;28;45433;-77
2023/10/02 08:53:23;;;;;;;;;4.67;4.67;;;;;28.85;41.32;101761.44;5055659;28;45363;-77
2023/10/02 08:56:24;;;;;;;;;5.00;4.00;;;;;28.79;41.14;101753.41;5055633;28;45498;-77
2023/10/02 09:01:35;;;;;;;;;6.00;6.00;;;;;28.60;41.59;101743.28;5033049;28;45421;-78
2023/10/02 09:04:28;;;;;;;;;5.33;4.00;;;;;28.55;41.79;101743.06;5016422;28;45469;-78
2023/10/02 09:07:15;;;;;;;;;7.00;4.00;;;;;28.60;41.59;101762.03;5033410;28;45476;-77
2023/10/02 09:09:54;;;;;;;;;6.33;5.67;;;;;28.56;42.08;101752.75;5032937;28;46804;-78
2023/10/02 09:12:20;;;;;;;;;6.00;6.00;;;;;28.26;41.60;101711.06;5032701;28;45568;-77
2023/10/02 09:14:46;;;;;;;;;4.00;4.00;;;;;28.46;42.28;101747.81;5036298;28;45491;-78
2023/10/02 09:17:16;;;;;;;;;2.67;2.00;;;;;28.37;41.75;101747.13;5036255;28;45559;-78
2023/10/02 09:20:07;;;;;;;;;6.00;6.00;;;;;28.40;41.94;101736.03;5036384;28;47279;-78
2023/10/02 09:22:41;;;;;;;;;5.33;4.67;;;;;28.38;41.92;101734.56;5036306;28;45398;-78
2023/10/02 09:25:15;;;;;;;;;3.67;3.33;;;;;28.34;42.27;101741.38;5036471;28;45450;-78
2023/10/02 09:27:56;;;;;;;;;6.00;4.67;;;;;28.25;41.72;101720.13;5036104;28;45432;-78
2023/10/02 09:33:08;;;;;;;;;5.33;5.00;;;;;28.34;41.91;101736.81;5036182;28;45945;-78
2023/10/02 09:35:44;;;;;;;;;5.00;5.00;;;;;28.34;42.51;101738.69;5036507;28;45429;-77
2023/10/02 09:38:13;;;;;;;;;6.67;6.67;;;;;28.34;42.66;101733.34;5042301;28;45611;-77
2023/10/02 09:43:23;;;;;;;;;3.33;3.33;;;;;28.27;42.26;101722.59;5058365;28;45531;-78
2023/10/02 09:45:53;;;;;;;;;4.67;4.67;;;;;28.25;42.46;101720.13;5058563;28;45312;-78
2023/10/02 09:48:46;;;;;;;;;9.00;4.67;;;;;28.31;42.60;101728.38;5058426;28;45516;-78
2023/10/02 09:51:38;;;;;;;;;5.67;3.67;;;;;28.21;42.51;101710.03;5058344;28;46354;-77
2023/10/02 09:54:28;;;;;;;;;7.00;4.00;;;;;28.25;42.41;101713.97;5058346;28;45333;-77
2023/10/02 09:57:32;;;;;;;;;4.67;4.00;;;;;28.25;42.28;101714.78;5058115;28;45358;-76
2023/10/02 09:59:51;;;;;;;;;6.33;4.33;;;;;28.24;42.67;101712.28;5056275;27;45413;-77
2023/10/02 10:05:39;;;;;;;;;11.67;6.33;;;;;28.23;42.27;101708.00;5058059;28;45312;-78
2023/10/02 10:08:16;;;;;;;;;9.00;4.33;;;;;28.21;42.41;101702.81;5058097;28;45336;-77
2023/10/02 10:10:50;;;;;;;;;7.00;6.00;;;;;28.21;42.36;101700.16;5057769;28;45368;-77
2023/10/02 10:13:33;;;;;;;;;5.00;4.67;;;;;27.99;42.67;101654.00;5058095;28;47049;-78
2023/10/02 10:16:20;;;;;;;;;7.00;5.33;;;;;28.20;43.01;101692.34;5057920;28;45373;-78
2023/10/02 10:21:57;;;;;;;;;7.00;4.67;;;;;28.14;42.42;101670.72;5057974;28;45620;-77
2023/10/02 10:24:56;;;;;;;;;4.33;4.33;;;;;28.13;42.67;101674.41;5057006;28;46579;-78
2023/10/02 10:27:40;;;;;;;;;8.00;6.67;;;;;28.14;42.33;101669.88;5058083;28;45408;-77
2023/10/02 10:30:27;;;;;;;;;6.00;6.00;;;;;28.13;42.22;101676.28;5058029;28;45439;-78
2023/10/02 10:35:51;;;;;;;;;8.33;5.67;;;;;28.10;42.97;101655.28;5057651;28;46021;-78
2023/10/02 10:38:25;;;;;;;;;8.00;5.67;;;;;28.10;42.62;101648.09;5057512;28;45351;-77
2023/10/02 10:41:17;;;;;;;;;7.67;5.00;;;;;28.07;42.57;101637.78;5057389;28;45329;-78
2023/10/02 10:46:17;;;;;;;;;3.67;3.67;;;;;28.09;42.85;101656.28;4995369;28;46078;-78
2023/10/02 10:48:48;;;;;;;;;5.33;4.00;;;;;28.05;42.59;101639.84;4995417;28;45354;-77
2023/10/02 10:51:20;;;;;;;;;7.33;5.00;;;;;28.08;42.85;101639.41;4995595;28;45482;-77
2023/10/02 10:53:52;;;;;;;;;4.33;3.33;;;;;28.05;42.75;101647.88;4994996;28;45315;-78
2023/10/02 10:56:18;;;;;;;;;5.33;4.00;;;;;28.04;42.63;101641.69;4995116;28;46218;-77
2023/10/02 10:58:51;;;;;;;;;4.67;4.00;;;;;27.98;42.75;101642.47;4995400;28;45436;-78
2023/10/02 11:01:16;;;;;;;;;9.00;8.00;;;;;28.07;42.64;101640.47;4995406;28;45404;-77
2023/10/02 11:03:43;;;;;;;;;7.00;5.67;;;;;27.82;42.93;101598.22;4995273;28;45669;-78
2023/10/02 11:06:10;;;;;;;;;7.00;6.33;;;;;28.04;42.61;101630.16;4994850;28;46115;-77
2023/10/02 11:08:40;;;;;;;;;6.33;6.00;;;;;28.00;42.42;101619.03;4994732;28;45354;-77
2023/10/02 11:11:19;;;;;;;;;6.00;4.33;;;;;28.02;43.12;101618.84;4995189;28;45565;-78
2023/10/02 11:13:54;;;;;;;;;7.00;5.00;;;;;27.95;43.06;101608.94;4995137;28;45481;-78
2023/10/02 11:16:30;;;;;;;;;11.00;6.00;;;;;27.96;42.51;101613.28;4994893;28;46642;-78
2023/10/02 11:22:22;;;;;;;;;8.00;5.00;;;;;27.98;43.17;101620.25;5047318;28;45298;-77
2023/10/02 11:24:51;;;;;;;;;8.00;5.67;;;;;27.97;42.93;101622.13;5057002;28;45456;-77
2023/10/02 11:27:17;;;;;;;;;8.00;5.00;;;;;27.96;42.90;101620.47;5056840;28;46374;-77
2023/10/02 11:29:45;;;;;;;;;7.00;5.00;;;;;27.92;42.93;101614.69;5056803;28;45445;-78
2023/10/02 11:32:27;;;;;;;;;4.67;4.00;;;;;27.95;43.13;101611.63;5056982;28;45365;-77
2023/10/02 11:34:59;;;;;;;;;5.00;4.00;;;;;27.94;43.08;101606.47;5056807;28;45387;-78
2023/10/02 11:37:26;;;;;;;;;5.33;4.67;;;;;27.81;42.89;101600.09;5055360;28;46143;-78
2023/10/02 11:39:53;;;;;;;;;6.33;6.33;;;;;27.92;43.52;101612.00;5056755;28;45392;-77
2023/10/02 11:42:19;;;;;;;;;7.33;6.00;;;;;27.79;42.89;101574.53;5056618;28;45319;-77
2023/10/02 11:44:45;;;;;;;;;4.00;3.33;;;;;27.80;43.54;101581.53;5057006;28;45224;-77
2023/10/02 11:47:10;;;;;;;;;11.00;5.00;;;;;27.91;43.34;101588.16;5056558;28;47021;-77
2023/10/02 11:49:37;;;;;;;;;7.00;5.00;;;;;27.87;42.79;101584.25;5056539;28;45150;-78
2023/10/02 11:52:03;;;;;;;;;10.00;8.67;;;;;27.90;43.27;101590.00;5056474;28;45385;-78
2023/10/02 11:54:32;;;;;;;;;6.33;6.33;;;;;27.83;43.07;101570.47;5056489;28;45551;-78
2023/10/02 11:56:57;;;;;;;;;5.67;4.33;;;;;27.89;43.09;101577.69;5056202;28;46048;-76
2023/10/02 11:59:23;;;;;;;;;4.67;4.67;;;;;27.72;43.16;101550.44;5056468;28;45279;-78
2023/10/02 12:01:48;;;;;;;;;7.00;4.00;;;;;27.90;42.67;101578.47;5056636;28;45403;-77
2023/10/02 12:04:14;;;;;;;;;6.00;4.67;;;;;27.89;42.74;101571.50;5056321;28;45439;-77
2023/10/02 12:06:40;;;;;;;;;6.67;6.00;;;;;27.90;43.13;101573.13;5055827;28;47099;-78
2023/10/02 12:09:06;;;;;;;;;7.00;4.67;;;;;27.79;42.96;101548.59;5056331;28;45344;-77
2023/10/02 12:11:34;;;;;;;;;6.67;5.33;;;;;27.84;42.78;101550.72;5056282;28;45360;-77
2023/10/02 12:14:02;;;;;;;;;5.00;4.33;;;;;27.81;42.85;101551.94;5055166;28;45377;-78
2023/10/02 12:16:28;;;;;;;;;7.67;5.00;;;;;27.63;43.31;101515.06;5056057;28;46090;-77
2023/10/02 12:18:54;;;;;;;;;8.00;4.00;;;;;27.63;42.80;101505.22;5056091;28;45304;-77
2023/10/02 12:21:21;;;;;;;;;5.00;4.33;;;;;27.80;43.16;101536.09;5055730;28;45303;-78
2023/10/02 12:23:47;;;;;;;;;8.00;6.67;;;;;27.69;43.28;101514.25;5056350;28;45343;-78
2023/10/02 12:26:14;;;;;;;;;7.00;5.00;;;;;27.83;43.42;101533.84;5055894;28;45511;-78
2023/10/02 12:28:41;;;;;;;;;6.33;5.00;;;;;27.74;43.48;101518.97;5055956;28;45392;-78
2023/10/02 12:31:19;;;;;;;;;5.00;5.00;;;;;27.78;43.27;101520.25;5056142;28;45489;-77
2023/10/02 12:33:46;;;;;;;;;3.67;3.67;;;;;27.55;43.54;101477.84;5056039;28;45459;-77
2023/10/02 12:36:11;;;;;;;;;7.00;5.67;;;;;27.80;43.45;101523.56;5055453;28;46141;-77
2023/10/02 12:38:38;;;;;;;;;6.00;6.00;;;;;27.79;42.89;101516.53;5055981;28;45273;-77
2023/10/02 12:41:11;;;;;;;;;7.33;6.33;;;;;27.76;43.49;101508.09;5056194;28;45465;-77
2023/10/02 12:43:36;;;;;;;;;8.00;5.00;;;;;27.80;42.83;101507.50;5055788;28;45498;-77
2023/10/02 12:46:03;;;;;;;;;6.67;6.67;;;;;27.79;43.09;101508.50;5055765;28;46228;-77